createdAt,value
2022-07-28T00:00:12.412Z,9.681496
2022-07-28T00:01:12.437Z,9.682010
2022-07-28T00:02:12.452Z,9.681436
2022-07-28T00:03:12.413Z,9.681108
2022-07-28T00:04:12.646Z,9.680993
2022-07-28T00:05:12.386Z,9.680828
2022-07-28T00:06:12.365Z,9.680987
2022-07-28T00:07:12.379Z,9.680984
2022-07-28T00:08:12.355Z,9.681334
2022-07-28T00:09:12.360Z,9.680830
2022-07-28T00:10:12.340Z,9.681269
2022-07-28T00:11:12.351Z,9.680965
2022-07-28T00:12:12.320Z,9.681044
2022-07-28T00:13:12.307Z,9.680973
2022-07-28T00:14:12.738Z,9.680797
2022-07-28T00:15:12.289Z,9.680829
2022-07-28T00:16:12.313Z,9.681021
2022-07-28T00:17:12.275Z,9.680830
2022-07-28T00:18:12.280Z,9.681279
2022-07-28T00:19:12.300Z,9.681099
2022-07-28T00:20:12.246Z,9.681151
2022-07-28T00:21:12.236Z,9.681209
2022-07-28T00:22:12.233Z,9.681286
2022-07-28T00:23:12.226Z,9.681100
2022-07-28T00:24:12.476Z,9.681067
2022-07-28T00:25:12.229Z,9.680977
2022-07-28T00:26:12.229Z,9.680674
2022-07-28T00:27:12.198Z,9.681216
2022-07-28T00:28:12.195Z,9.680828
2022-07-28T00:29:12.182Z,9.680552
2022-07-28T00:30:12.205Z,9.679820
2022-07-28T00:31:13.790Z,9.681025
2022-07-28T00:32:12.157Z,9.680842
2022-07-28T00:33:12.150Z,9.681005
2022-07-28T00:34:12.562Z,9.681088
2022-07-28T00:35:12.155Z,9.680941
2022-07-28T00:36:12.128Z,9.680958
2022-07-28T00:37:14.414Z,9.680773
2022-07-28T00:38:12.108Z,9.680927
2022-07-28T00:39:12.137Z,9.680793
2022-07-28T00:40:12.118Z,9.681103
2022-07-28T00:41:12.114Z,9.681077
2022-07-28T00:42:12.092Z,9.680979
2022-07-28T00:43:12.093Z,9.680569
2022-07-28T00:44:12.424Z,9.680914
2022-07-28T00:45:12.054Z,9.681013
2022-07-28T00:46:12.117Z,9.680909
2022-07-28T00:47:12.052Z,9.681018
2022-07-28T00:48:12.034Z,9.681040
2022-07-28T00:49:12.097Z,9.681039
2022-07-28T00:50:12.013Z,9.681069
2022-07-28T00:51:11.999Z,9.681035
2022-07-28T00:52:11.991Z,9.681024
2022-07-28T00:53:12.012Z,9.680990
2022-07-28T00:54:12.249Z,9.681056
2022-07-28T00:55:11.995Z,9.681142
2022-07-28T00:56:11.974Z,9.681111
2022-07-28T00:57:11.971Z,9.681098
2022-07-28T00:58:11.953Z,9.681105
2022-07-28T00:59:11.942Z,9.681099
2022-07-28T01:00:11.933Z,9.681033
2022-07-28T01:01:11.953Z,9.681109
2022-07-28T01:02:12.031Z,9.681071
2022-07-28T01:03:11.956Z,9.681076
2022-07-28T01:04:12.268Z,9.681026
2022-07-28T01:05:11.885Z,9.680999
2022-07-28T01:06:11.886Z,9.681182
2022-07-28T01:07:11.880Z,9.681130
2022-07-28T01:08:11.860Z,9.681118
2022-07-28T01:09:11.877Z,9.681124
2022-07-28T01:10:11.864Z,9.680953
2022-07-28T01:11:11.839Z,9.681108
2022-07-28T01:12:11.850Z,9.681084
2022-07-28T01:13:11.832Z,9.681072
2022-07-28T01:14:12.300Z,9.680966
2022-07-28T01:15:11.838Z,9.680810
2022-07-28T01:16:11.918Z,9.681091
2022-07-28T01:17:11.805Z,9.681058
2022-07-28T01:18:11.811Z,9.681052
2022-07-28T01:19:11.777Z,9.680973
2022-07-28T01:20:11.776Z,9.681046
2022-07-28T01:21:11.775Z,9.681143
2022-07-28T01:22:12.515Z,9.681216
2022-07-28T01:23:11.759Z,9.681216
2022-07-28T01:24:12.139Z,9.681216
2022-07-28T01:25:11.733Z,9.681216
2022-07-28T01:26:11.730Z,9.681216
2022-07-28T01:27:11.713Z,9.680972
2022-07-28T01:28:11.713Z,9.681130
2022-07-28T01:29:11.722Z,9.681151
2022-07-28T01:30:11.703Z,9.681166
2022-07-28T01:31:11.756Z,9.681343
2022-07-28T01:32:11.683Z,9.681302
2022-07-28T01:33:11.670Z,9.681274
2022-07-28T01:34:12.040Z,9.681355
2022-07-28T01:35:11.697Z,9.681392
2022-07-28T01:36:11.652Z,9.681200
2022-07-28T01:37:11.657Z,9.681102
2022-07-28T01:38:11.638Z,9.681239
2022-07-28T01:39:11.630Z,9.681239
2022-07-28T01:40:11.645Z,9.681170
2022-07-28T01:41:11.626Z,9.681154
2022-07-28T01:42:11.624Z,9.681181
2022-07-28T01:43:13.167Z,9.681087
2022-07-28T01:44:11.971Z,9.681060
2022-07-28T01:45:11.583Z,9.681093
2022-07-28T01:46:11.626Z,9.681087
2022-07-28T01:47:11.588Z,9.681093
2022-07-28T01:48:11.560Z,9.681030
2022-07-28T01:49:11.596Z,9.681137
2022-07-28T01:50:11.560Z,9.681160
2022-07-28T01:51:11.540Z,9.681119
2022-07-28T01:52:11.552Z,9.681097
2022-07-28T01:53:11.518Z,9.681151
2022-07-28T01:54:11.726Z,9.681085
2022-07-28T01:55:11.510Z,9.681116
2022-07-28T01:56:11.504Z,9.680972
2022-07-28T01:57:11.494Z,9.680908
2022-07-28T01:58:11.512Z,9.681068
2022-07-28T01:59:11.475Z,9.681083
2022-07-28T02:00:11.476Z,9.681178
2022-07-28T02:01:11.510Z,9.681192
2022-07-28T02:02:11.461Z,9.681110
2022-07-28T02:03:11.461Z,9.681165
2022-07-28T02:04:11.809Z,9.681050
2022-07-28T02:05:11.509Z,9.680946
2022-07-28T02:06:11.433Z,9.681074
2022-07-28T02:07:11.423Z,9.681058
2022-07-28T02:08:11.415Z,9.681221
2022-07-28T02:09:11.425Z,9.681422
2022-07-28T02:10:11.427Z,9.681247
2022-07-28T02:11:11.385Z,9.681243
2022-07-28T02:12:11.383Z,9.681312
2022-07-28T02:13:11.374Z,9.681248
2022-07-28T02:14:11.763Z,9.681037
2022-07-28T02:15:11.370Z,9.681035
2022-07-28T02:16:11.410Z,9.681123
2022-07-28T02:17:11.353Z,9.681033
2022-07-28T02:18:11.364Z,9.681008
2022-07-28T02:19:11.327Z,9.680907
2022-07-28T02:20:11.329Z,9.681035
2022-07-28T02:21:11.319Z,9.681150
2022-07-28T02:22:11.330Z,9.681180
2022-07-28T02:23:11.303Z,9.681180
2022-07-28T02:24:11.631Z,9.680999
2022-07-28T02:25:11.282Z,9.681107
2022-07-28T02:26:11.278Z,9.680956
2022-07-28T02:27:11.263Z,9.680933
2022-07-28T02:28:11.285Z,9.681044
2022-07-28T02:29:27.386Z,9.680900
2022-07-28T02:30:12.253Z,9.680905
2022-07-28T02:31:11.304Z,9.680665
2022-07-28T02:32:24.125Z,9.680824
2022-07-28T02:33:12.245Z,9.680552
2022-07-28T02:34:11.295Z,9.680940
2022-07-28T02:35:11.229Z,9.680829
2022-07-28T02:36:11.199Z,9.680861
2022-07-28T02:37:11.210Z,9.681151
2022-07-28T02:38:11.184Z,9.680991
2022-07-28T02:39:11.191Z,9.680291
2022-07-28T02:40:11.175Z,9.680650
2022-07-28T02:41:11.185Z,9.680563
2022-07-28T02:42:11.162Z,9.681298
2022-07-28T02:43:11.150Z,9.681146
2022-07-28T02:44:11.528Z,9.680882
2022-07-28T02:45:11.148Z,9.680940
2022-07-28T02:46:11.157Z,9.680959
2022-07-28T02:47:11.147Z,9.681050
2022-07-28T02:48:11.121Z,9.680959
2022-07-28T02:49:11.185Z,9.680966
2022-07-28T02:50:11.109Z,9.680858
2022-07-28T02:51:11.115Z,9.681087
2022-07-28T02:52:11.096Z,9.680982
2022-07-28T02:53:15.476Z,9.681087
2022-07-28T02:54:11.457Z,9.681128
2022-07-28T02:55:11.086Z,9.681188
2022-07-28T02:56:11.089Z,9.681231
2022-07-28T02:57:11.058Z,9.681145
2022-07-28T02:58:11.048Z,9.681016
2022-07-28T02:59:11.067Z,9.680885
2022-07-28T03:00:11.040Z,9.680929
2022-07-28T03:01:11.053Z,9.681025
2022-07-28T03:02:11.026Z,9.681005
2022-07-28T03:03:11.017Z,9.681281
2022-07-28T03:04:11.347Z,9.681116
2022-07-28T03:05:11.484Z,9.681282
2022-07-28T03:06:10.996Z,9.681206
2022-07-28T03:07:11.349Z,9.681398
2022-07-28T03:08:10.986Z,9.681142
2022-07-28T03:09:10.987Z,9.681232
2022-07-28T03:10:10.967Z,9.681240
2022-07-28T03:11:10.991Z,9.681219
2022-07-28T03:12:10.960Z,9.681286
2022-07-28T03:13:10.953Z,9.681181
2022-07-28T03:14:11.186Z,9.680801
2022-07-28T03:15:10.940Z,9.680765
2022-07-28T03:16:10.932Z,9.681138
2022-07-28T03:17:11.002Z,9.681574
2022-07-28T03:18:10.912Z,9.681314
2022-07-28T03:19:10.904Z,9.681196
2022-07-28T03:20:10.910Z,9.681737
2022-07-28T03:21:10.892Z,9.681985
2022-07-28T03:22:10.886Z,9.681459
2022-07-28T03:23:10.891Z,9.680683
2022-07-28T03:24:11.161Z,9.680194
2022-07-28T03:25:10.869Z,9.680844
2022-07-28T03:26:10.858Z,9.680542
2022-07-28T03:27:10.857Z,9.680446
2022-07-28T03:28:10.889Z,9.679639
2022-07-28T03:29:10.836Z,9.680503
2022-07-28T03:30:10.835Z,9.680096
2022-07-28T03:31:10.912Z,9.680806
2022-07-28T03:32:10.822Z,9.681561
2022-07-28T03:33:10.801Z,9.681254
2022-07-28T03:34:11.275Z,9.681695
2022-07-28T03:35:10.796Z,9.681144
2022-07-28T03:36:10.792Z,9.681346
2022-07-28T03:37:10.774Z,9.681217
2022-07-28T03:38:10.777Z,9.681129
2022-07-28T03:39:10.799Z,9.681129
2022-07-28T03:40:10.758Z,9.681129
2022-07-28T03:41:10.748Z,9.681129
2022-07-28T03:42:10.745Z,9.681129
2022-07-28T03:43:10.735Z,9.680634
2022-07-28T03:44:10.832Z,9.680102
2022-07-28T03:45:10.751Z,9.680310
2022-07-28T03:46:13.329Z,9.680687
2022-07-28T03:47:10.717Z,9.680663
2022-07-28T03:48:10.697Z,9.680449
2022-07-28T03:49:10.725Z,9.680326
2022-07-28T03:50:10.698Z,9.680284
2022-07-28T03:51:10.709Z,9.680284
2022-07-28T03:52:10.698Z,9.680797
2022-07-28T03:53:10.677Z,9.680942
2022-07-28T03:54:10.912Z,9.680866
2022-07-28T03:55:10.657Z,9.680767
2022-07-28T03:56:10.646Z,9.680798
2022-07-28T03:57:10.658Z,9.680654
2022-07-28T03:58:10.629Z,9.680800
2022-07-28T03:59:10.646Z,9.680830
2022-07-28T04:00:10.614Z,9.680914
2022-07-28T04:01:10.681Z,9.680931
2022-07-28T04:02:10.644Z,9.680965
2022-07-28T04:03:21.993Z,9.680976
2022-07-28T04:04:11.942Z,9.680807
2022-07-28T04:05:10.579Z,9.680778
2022-07-28T04:06:10.591Z,9.680787
2022-07-28T04:07:10.589Z,9.680706
2022-07-28T04:08:10.560Z,9.680992
2022-07-28T04:09:10.563Z,9.681031
2022-07-28T04:10:10.547Z,9.680972
2022-07-28T04:11:10.543Z,9.680897
2022-07-28T04:12:10.562Z,9.681024
2022-07-28T04:13:10.527Z,9.681087
2022-07-28T04:14:16.246Z,9.681051
2022-07-28T04:15:11.518Z,9.681051
2022-07-28T04:16:10.534Z,9.681051
2022-07-28T04:17:10.591Z,9.680901
2022-07-28T04:18:10.504Z,9.681165
2022-07-28T04:19:10.488Z,9.681157
2022-07-28T04:20:10.479Z,9.681067
2022-07-28T04:21:10.482Z,9.681027
2022-07-28T04:22:10.468Z,9.681035
2022-07-28T04:23:10.486Z,9.681041
2022-07-28T04:24:10.445Z,9.681023
2022-07-28T04:25:10.443Z,9.680942
2022-07-28T04:26:10.431Z,9.680985
2022-07-28T04:27:10.420Z,9.681038
2022-07-28T04:28:10.417Z,9.681112
2022-07-28T04:29:10.419Z,9.681097
2022-07-28T04:30:10.408Z,9.681083
2022-07-28T04:31:10.576Z,9.681196
2022-07-28T04:32:10.391Z,9.681112
2022-07-28T04:33:10.392Z,9.681145
2022-07-28T04:34:10.435Z,9.681129
2022-07-28T04:35:12.963Z,9.681077
2022-07-28T04:36:10.366Z,9.681076
2022-07-28T04:37:10.385Z,9.681076
2022-07-28T04:38:10.367Z,9.681046
2022-07-28T04:39:10.343Z,9.681006
2022-07-28T04:40:10.342Z,9.681048
2022-07-28T04:41:10.328Z,9.681077
2022-07-28T04:42:10.323Z,9.681108
2022-07-28T04:43:10.354Z,9.681142
2022-07-28T04:44:10.512Z,9.681145
2022-07-28T04:45:10.302Z,9.681016
2022-07-28T04:46:14.819Z,9.680988
2022-07-28T04:47:10.292Z,9.681069
2022-07-28T04:48:10.296Z,9.681100
2022-07-28T04:49:10.327Z,9.681103
2022-07-28T04:50:10.266Z,9.681198
2022-07-28T04:51:10.279Z,9.681076
2022-07-28T04:52:10.255Z,9.680885
2022-07-28T04:53:10.244Z,9.680874
2022-07-28T04:54:10.311Z,9.680959
2022-07-28T04:55:10.234Z,9.680976
2022-07-28T04:56:10.222Z,9.681010
2022-07-28T04:57:12.767Z,9.680983
2022-07-28T04:58:10.216Z,9.680993
2022-07-28T04:59:10.194Z,9.681138
2022-07-28T05:00:10.215Z,9.681116
2022-07-28T05:01:10.253Z,9.681134
2022-07-28T05:02:10.177Z,9.681127
2022-07-28T05:03:10.175Z,9.681018
2022-07-28T05:04:10.167Z,9.680999
2022-07-28T05:05:10.247Z,9.681112
2022-07-28T05:06:10.169Z,9.681033
2022-07-28T05:07:12.800Z,9.680954
2022-07-28T05:08:10.150Z,9.681033
2022-07-28T05:09:10.124Z,9.681103
2022-07-28T05:10:10.137Z,9.680852
2022-07-28T05:11:10.101Z,9.680882
2022-07-28T05:12:10.090Z,9.680950
2022-07-28T05:13:10.078Z,9.681077
2022-07-28T05:14:12.641Z,9.681124
2022-07-28T05:15:10.090Z,9.680986
2022-07-28T05:16:10.147Z,9.680779
2022-07-28T05:17:10.073Z,9.680902
2022-07-28T05:18:10.067Z,9.681071
2022-07-28T05:19:10.036Z,9.681024
2022-07-28T05:20:10.029Z,9.681139
2022-07-28T05:21:10.023Z,9.681149
2022-07-28T05:22:10.044Z,9.681236
2022-07-28T05:23:10.006Z,9.681106
2022-07-28T05:24:10.119Z,9.681198
2022-07-28T05:25:09.997Z,9.680977
2022-07-28T05:26:09.990Z,9.681161
2022-07-28T05:27:09.989Z,9.681178
2022-07-28T05:28:09.990Z,9.681101
2022-07-28T05:29:09.963Z,9.680979
2022-07-28T05:30:09.965Z,9.680994
2022-07-28T05:31:09.985Z,9.681132
2022-07-28T05:32:16.546Z,9.680916
2022-07-28T05:33:10.934Z,9.680928
2022-07-28T05:34:09.928Z,9.680879
2022-07-28T05:35:09.923Z,9.680935
2022-07-28T05:36:09.920Z,9.680923
2022-07-28T05:37:09.938Z,9.680966
2022-07-28T05:38:11.083Z,9.680776
2022-07-28T05:39:09.912Z,9.680880
2022-07-28T05:40:09.889Z,9.680922
2022-07-28T05:41:09.884Z,9.681003
2022-07-28T05:42:09.877Z,9.680398
2022-07-28T05:43:09.869Z,9.680588
2022-07-28T05:44:09.923Z,9.680654
2022-07-28T05:45:15.090Z,9.680915
2022-07-28T05:46:10.878Z,9.680667
2022-07-28T05:47:09.882Z,9.680384
2022-07-28T05:48:09.831Z,9.680423
2022-07-28T05:49:09.882Z,9.679972
2022-07-28T05:50:09.816Z,9.679684
2022-07-28T05:51:09.806Z,9.679733
2022-07-28T05:52:09.814Z,9.679783
2022-07-28T05:53:09.821Z,9.679903
2022-07-28T05:54:09.791Z,9.680473
2022-07-28T05:55:09.788Z,9.680968
2022-07-28T05:56:09.778Z,9.680902
2022-07-28T05:57:09.789Z,9.680854
2022-07-28T05:58:10.785Z,9.680688
2022-07-28T05:59:09.763Z,9.680606
2022-07-28T06:00:09.752Z,9.680226
2022-07-28T06:01:09.790Z,9.680780
2022-07-28T06:02:09.778Z,9.680583
2022-07-28T06:03:09.730Z,9.680552
2022-07-28T06:04:26.736Z,9.680624
2022-07-28T06:05:10.718Z,9.680534
2022-07-28T06:06:14.684Z,9.680310
2022-07-28T06:07:10.709Z,9.680101
2022-07-28T06:08:09.703Z,9.680202
2022-07-28T06:09:09.706Z,9.680219
2022-07-28T06:10:09.687Z,9.680552
2022-07-28T06:11:09.694Z,9.680457
2022-07-28T06:12:09.691Z,9.680228
2022-07-28T06:13:09.687Z,9.680209
2022-07-28T06:14:09.660Z,9.680086
2022-07-28T06:15:09.645Z,9.680295
2022-07-28T06:16:13.166Z,9.680567
2022-07-28T06:17:09.647Z,9.680537
2022-07-28T06:18:09.642Z,9.680671
2022-07-28T06:19:09.636Z,9.680373
2022-07-28T06:20:09.645Z,9.680309
2022-07-28T06:21:09.617Z,9.680329
2022-07-28T06:22:09.615Z,9.680198
2022-07-28T06:23:09.629Z,9.680489
2022-07-28T06:24:09.596Z,9.680491
2022-07-28T06:25:09.620Z,9.680557
2022-07-28T06:26:09.589Z,9.680773
2022-07-28T06:27:09.578Z,9.680541
2022-07-28T06:28:09.573Z,9.680688
2022-07-28T06:29:09.557Z,9.680657
2022-07-28T06:30:09.563Z,9.681015
2022-07-28T06:31:09.649Z,9.680923
2022-07-28T06:32:09.579Z,9.680872
2022-07-28T06:33:12.753Z,9.680767
2022-07-28T06:34:09.534Z,9.681246
2022-07-28T06:35:09.543Z,9.681117
2022-07-28T06:36:09.538Z,9.681031
2022-07-28T06:37:09.536Z,9.680964
2022-07-28T06:38:09.527Z,9.680955
2022-07-28T06:39:09.525Z,9.681034
2022-07-28T06:40:09.488Z,9.681091
2022-07-28T06:41:09.482Z,9.681126
2022-07-28T06:42:09.502Z,9.681007
2022-07-28T06:43:09.472Z,9.681060
2022-07-28T06:44:09.476Z,9.681063
2022-07-28T06:45:09.460Z,9.680992
2022-07-28T06:46:09.461Z,9.680889
2022-07-28T06:47:09.530Z,9.680794
2022-07-28T06:48:09.460Z,9.680875
2022-07-28T06:49:09.485Z,9.680862
2022-07-28T06:50:26.136Z,9.680852
2022-07-28T06:51:10.419Z,9.680854
2022-07-28T06:52:09.415Z,9.680954
2022-07-28T06:53:09.411Z,9.680996
2022-07-28T06:54:11.604Z,9.681043
2022-07-28T06:55:09.398Z,9.681161
2022-07-28T06:56:13.900Z,9.681089
2022-07-28T06:57:10.386Z,9.681070
2022-07-28T06:58:09.380Z,9.681083
2022-07-28T06:59:09.369Z,9.681083
2022-07-28T07:00:09.396Z,9.680996
2022-07-28T07:01:09.396Z,9.680996
2022-07-28T07:02:09.352Z,9.680996
2022-07-28T07:03:09.955Z,9.680996
2022-07-28T07:04:09.418Z,9.681079
2022-07-28T07:05:09.337Z,9.681257
2022-07-28T07:06:09.365Z,9.680900
2022-07-28T07:07:14.730Z,9.681007
2022-07-28T07:08:10.320Z,9.681312
2022-07-28T07:09:09.323Z,9.681329
2022-07-28T07:10:09.309Z,9.680875
2022-07-28T07:11:09.317Z,9.680852
2022-07-28T07:12:09.285Z,9.681093
2022-07-28T07:13:09.269Z,9.681049
2022-07-28T07:14:09.275Z,9.681416
2022-07-28T07:15:09.274Z,9.681108
2022-07-28T07:16:09.316Z,9.680681
2022-07-28T07:17:09.268Z,9.681136
2022-07-28T07:18:09.287Z,9.681432
2022-07-28T07:19:13.931Z,9.681318
2022-07-28T07:20:10.244Z,9.681228
2022-07-28T07:21:09.230Z,9.681601
2022-07-28T07:22:09.245Z,9.681066
2022-07-28T07:23:09.244Z,9.680985
2022-07-28T07:24:09.222Z,9.680860
2022-07-28T07:25:09.199Z,9.680731
2022-07-28T07:26:09.225Z,9.680824
2022-07-28T07:27:09.192Z,9.680715
2022-07-28T07:28:09.192Z,9.680755
2022-07-28T07:29:09.181Z,9.680713
2022-07-28T07:30:09.215Z,9.680809
2022-07-28T07:31:09.228Z,9.680700
2022-07-28T07:32:10.934Z,9.680671
2022-07-28T07:33:10.391Z,9.680749
2022-07-28T07:34:09.145Z,9.680705
2022-07-28T07:35:09.138Z,9.680771
2022-07-28T07:36:09.152Z,9.680715
2022-07-28T07:37:09.131Z,9.680627
2022-07-28T07:38:09.117Z,9.680654
2022-07-28T07:39:09.115Z,9.680827
2022-07-28T07:40:09.131Z,9.680893
2022-07-28T07:41:09.112Z,9.680907
2022-07-28T07:42:09.096Z,9.680897
2022-07-28T07:43:09.090Z,9.680891
2022-07-28T07:44:09.091Z,9.680914
2022-07-28T07:45:09.097Z,9.680908
2022-07-28T07:46:09.105Z,9.680892
2022-07-28T07:47:09.065Z,9.680927
2022-07-28T07:48:09.062Z,9.680886
2022-07-28T07:49:09.146Z,9.680936
2022-07-28T07:50:09.047Z,9.680938
2022-07-28T07:51:15.258Z,9.680942
2022-07-28T07:52:10.044Z,9.680801
2022-07-28T07:53:09.047Z,9.680822
2022-07-28T07:54:09.903Z,9.680754
2022-07-28T07:55:09.040Z,9.680742
2022-07-28T07:56:09.025Z,9.680674
2022-07-28T07:57:09.015Z,9.680549
2022-07-28T07:58:09.003Z,9.680627
2022-07-28T07:59:09.012Z,9.680490
2022-07-28T08:00:28.722Z,9.681258
2022-07-28T08:01:09.988Z,9.681323
2022-07-28T08:02:09.022Z,9.681019
2022-07-28T08:03:11.249Z,9.680964
2022-07-28T08:04:09.019Z,9.680889
2022-07-28T08:05:09.003Z,9.681006
2022-07-28T08:06:08.968Z,9.681193
2022-07-28T08:07:08.953Z,9.681127
2022-07-28T08:08:08.940Z,9.681117
2022-07-28T08:09:08.937Z,9.680910
2022-07-28T08:10:08.941Z,9.680970
2022-07-28T08:11:08.949Z,9.681069
2022-07-28T08:12:08.923Z,9.681267
2022-07-28T08:13:08.912Z,9.681291
2022-07-28T08:14:08.919Z,9.681073
2022-07-28T08:15:08.921Z,9.681412
2022-07-28T08:16:08.988Z,9.681430
2022-07-28T08:17:08.885Z,9.681290
2022-07-28T08:18:08.884Z,9.681243
2022-07-28T08:19:08.977Z,9.681372
2022-07-28T08:20:08.882Z,9.681383
2022-07-28T08:21:08.874Z,9.681261
2022-07-28T08:22:08.879Z,9.681274
2022-07-28T08:23:08.878Z,9.681248
2022-07-28T08:24:08.852Z,9.681191
2022-07-28T08:25:08.844Z,9.681255
2022-07-28T08:26:08.834Z,9.681226
2022-07-28T08:27:08.840Z,9.681277
2022-07-28T08:28:08.817Z,9.681197
2022-07-28T08:29:08.809Z,9.681175
2022-07-28T08:30:08.805Z,9.681300
2022-07-28T08:31:08.888Z,9.681283
2022-07-28T08:32:08.815Z,9.681336
2022-07-28T08:33:08.790Z,9.681389
2022-07-28T08:34:26.461Z,9.681195
2022-07-28T08:35:32.470Z,9.681310
2022-07-28T08:36:09.773Z,9.681183
2022-07-28T08:37:08.769Z,9.681279
2022-07-28T08:38:08.771Z,9.681216
2022-07-28T08:39:08.755Z,9.681385
2022-07-28T08:40:08.747Z,9.681454
2022-07-28T08:41:08.770Z,9.681448
2022-07-28T08:42:08.746Z,9.681351
2022-07-28T08:43:08.729Z,9.681230
2022-07-28T08:44:08.724Z,9.681405
2022-07-28T08:45:08.719Z,9.681445
2022-07-28T08:46:08.762Z,9.681311
2022-07-28T08:47:08.721Z,9.681479
2022-07-28T08:48:09.862Z,9.681411
2022-07-28T08:49:08.794Z,9.681483
2022-07-28T08:50:08.713Z,9.681712
2022-07-28T08:51:08.686Z,9.681427
2022-07-28T08:52:08.696Z,9.681376
2022-07-28T08:53:08.673Z,9.681441
2022-07-28T08:54:08.662Z,9.681421
2022-07-28T08:55:08.657Z,9.681401
2022-07-28T08:56:08.661Z,9.681425
2022-07-28T08:57:08.678Z,9.681433
2022-07-28T08:58:08.644Z,9.681434
2022-07-28T08:59:08.632Z,9.681520
2022-07-28T09:00:08.626Z,9.681476
2022-07-28T09:01:08.625Z,9.681466
2022-07-28T09:02:08.668Z,9.681450
2022-07-28T09:03:08.707Z,9.681238
2022-07-28T09:04:08.610Z,9.681325
2022-07-28T09:05:08.598Z,9.681301
2022-07-28T09:06:08.603Z,9.681437
2022-07-28T09:07:08.584Z,9.681415
2022-07-28T09:08:08.600Z,9.681326
2022-07-28T09:09:08.578Z,9.681396
2022-07-28T09:10:08.568Z,9.681375
2022-07-28T09:11:08.578Z,9.681452
2022-07-28T09:12:08.564Z,9.681384
2022-07-28T09:13:08.575Z,9.681372
2022-07-28T09:14:08.574Z,9.681396
2022-07-28T09:15:08.566Z,9.681365
2022-07-28T09:16:08.569Z,9.681257
2022-07-28T09:17:08.524Z,9.681168
2022-07-28T09:18:08.518Z,9.681076
2022-07-28T09:19:08.528Z,9.681530
2022-07-28T09:20:11.104Z,9.681335
2022-07-28T09:21:08.547Z,9.681316
2022-07-28T09:22:08.507Z,9.681342
2022-07-28T09:23:33.612Z,9.681370
2022-07-28T09:24:09.509Z,9.681498
2022-07-28T09:25:08.482Z,9.681649
2022-07-28T09:26:12.524Z,9.681610
2022-07-28T09:27:08.483Z,9.681421
2022-07-28T09:28:08.477Z,9.681248
2022-07-28T09:29:08.463Z,9.681358
2022-07-28T09:30:08.473Z,9.681327
2022-07-28T09:31:08.483Z,9.680986
2022-07-28T09:32:08.566Z,9.680989
2022-07-28T09:33:08.445Z,9.681158
2022-07-28T09:34:08.442Z,9.681255
2022-07-28T09:35:08.462Z,9.681214
2022-07-28T09:36:08.428Z,9.681326
2022-07-28T09:37:08.427Z,9.681256
2022-07-28T09:38:08.426Z,9.681226
2022-07-28T09:39:08.411Z,9.681051
2022-07-28T09:40:10.585Z,9.680935
2022-07-28T09:41:08.433Z,9.680776
2022-07-28T09:42:08.402Z,9.680458
2022-07-28T09:43:08.385Z,9.680647
2022-07-28T09:44:08.378Z,9.680913
2022-07-28T09:45:24.380Z,9.681189
2022-07-28T09:46:09.581Z,9.681185
2022-07-28T09:47:08.552Z,9.681361
2022-07-28T09:48:08.512Z,9.681071
2022-07-28T09:49:08.522Z,9.680775
2022-07-28T09:50:08.501Z,9.680018
2022-07-28T09:51:08.337Z,9.680583
2022-07-28T09:52:08.351Z,9.680935
2022-07-28T09:53:08.333Z,9.681923
2022-07-28T09:54:08.339Z,9.682269
2022-07-28T09:55:08.313Z,9.682269
2022-07-28T09:56:08.307Z,9.682331
2022-07-28T09:57:08.311Z,9.682639
2022-07-28T09:58:08.312Z,9.681371
2022-07-28T09:59:08.609Z,9.680985
2022-07-28T10:00:08.311Z,9.681065
2022-07-28T10:01:08.409Z,9.681170
2022-07-28T10:02:08.306Z,9.681203
2022-07-28T10:03:08.315Z,9.681214
2022-07-28T10:04:08.256Z,9.680964
2022-07-28T10:05:08.245Z,9.681238
2022-07-28T10:06:08.296Z,9.681128
2022-07-28T10:07:08.239Z,9.681099
2022-07-28T10:08:08.228Z,9.681053
2022-07-28T10:09:08.218Z,9.681136
2022-07-28T10:10:08.217Z,9.681488
2022-07-28T10:11:08.209Z,9.681562
2022-07-28T10:12:08.224Z,9.681760
2022-07-28T10:13:08.197Z,9.681735
2022-07-28T10:14:08.188Z,9.681995
2022-07-28T10:15:08.189Z,9.682191
2022-07-28T10:16:08.185Z,9.681467
2022-07-28T10:17:08.160Z,9.681417
2022-07-28T10:18:08.183Z,9.681553
2022-07-28T10:19:08.146Z,9.681297
2022-07-28T10:20:08.158Z,9.681483
2022-07-28T10:21:08.151Z,9.681319
2022-07-28T10:22:08.155Z,9.681275
2022-07-28T10:23:08.122Z,9.681216
2022-07-28T10:24:08.113Z,9.681318
2022-07-28T10:25:08.109Z,9.681232
2022-07-28T10:26:10.980Z,9.681183
2022-07-28T10:27:08.097Z,9.681271
2022-07-28T10:28:08.113Z,9.681285
2022-07-28T10:29:08.082Z,9.681306
2022-07-28T10:30:08.091Z,9.681360
2022-07-28T10:31:08.108Z,9.681325
2022-07-28T10:32:08.072Z,9.681328
2022-07-28T10:33:08.055Z,9.681208
2022-07-28T10:34:10.078Z,9.681272
2022-07-28T10:35:08.057Z,9.681252
2022-07-28T10:36:08.038Z,9.681200
2022-07-28T10:37:08.031Z,9.681203
2022-07-28T10:38:08.041Z,9.681150
2022-07-28T10:39:08.024Z,9.681076
2022-07-28T10:40:10.555Z,9.681106
2022-07-28T10:41:08.001Z,9.681137
2022-07-28T10:42:08.000Z,9.681155
2022-07-28T10:43:07.992Z,9.681103
2022-07-28T10:44:07.978Z,9.681117
2022-07-28T10:45:08.010Z,9.681052
2022-07-28T10:46:10.755Z,9.681171
2022-07-28T10:47:09.000Z,9.681169
2022-07-28T10:48:08.962Z,9.681074
2022-07-28T10:49:09.826Z,9.681124
2022-07-28T10:50:07.959Z,9.681120
2022-07-28T10:51:07.938Z,9.681125
2022-07-28T10:52:19.673Z,9.681170
2022-07-28T10:53:08.945Z,9.681092
2022-07-28T10:54:07.922Z,9.681152
2022-07-28T10:55:07.908Z,9.681174
2022-07-28T10:56:07.908Z,9.681062
2022-07-28T10:57:07.906Z,9.681062
2022-07-28T10:58:11.205Z,9.681159
2022-07-28T10:59:07.881Z,9.681098
2022-07-28T11:00:13.220Z,9.681060
2022-07-28T11:01:17.041Z,9.681111
2022-07-28T11:02:09.033Z,9.681166
2022-07-28T11:03:13.986Z,9.681192
2022-07-28T11:04:08.876Z,9.681346
2022-07-28T11:05:07.841Z,9.681307
2022-07-28T11:06:07.848Z,9.681268
2022-07-28T11:07:07.829Z,9.681291
2022-07-28T11:08:07.827Z,9.681248
2022-07-28T11:09:07.805Z,9.681209
2022-07-28T11:10:07.825Z,9.681103
2022-07-28T11:11:09.410Z,9.681222
2022-07-28T11:12:09.899Z,9.681134
2022-07-28T11:13:07.774Z,9.681103
2022-07-28T11:14:08.825Z,9.681183
2022-07-28T11:15:18.286Z,9.681151
2022-07-28T11:16:07.768Z,9.681190
2022-07-28T11:17:10.904Z,9.681204
2022-07-28T11:18:08.786Z,9.681231
2022-07-28T11:19:36.044Z,9.681262
2022-07-28T11:20:24.969Z,9.681288
2022-07-28T11:21:08.740Z,9.681253
2022-07-28T11:22:07.722Z,9.681257
2022-07-28T11:23:07.721Z,9.680951
2022-07-28T11:24:07.717Z,9.680823
2022-07-28T11:25:18.575Z,9.681405
2022-07-28T11:26:08.711Z,9.680979
2022-07-28T11:27:07.720Z,9.680956
2022-07-28T11:28:07.707Z,9.681287
2022-07-28T11:29:07.676Z,9.681529
2022-07-28T11:30:07.666Z,9.681411
2022-07-28T11:31:07.740Z,9.681399
2022-07-28T11:32:07.663Z,9.681310
2022-07-28T11:33:07.685Z,9.681288
2022-07-28T11:34:07.660Z,9.681275
2022-07-28T11:35:07.638Z,9.681067
2022-07-28T11:36:07.637Z,9.681199
2022-07-28T11:37:07.623Z,9.681022
2022-07-28T11:38:07.618Z,9.681221
2022-07-28T11:39:07.623Z,9.681231
2022-07-28T11:40:07.616Z,9.681250
2022-07-28T11:41:07.587Z,9.681302
2022-07-28T11:42:07.600Z,9.681162
2022-07-28T11:43:07.583Z,9.680923
2022-07-28T11:44:07.596Z,9.681040